Delray Beach, FL

9:12 AM EDT on June 30, 2015 (GMT -0400)
Delray Beach | | Change Station
CLOSE
Current Station
Personal Weather Station
Location: Delray Beach, FL
Elevation: 30 ft
Nearby Weather Stations

Elev 30 ft 26.47 °N, 80.09 °W | Updated 1 second ago

Partly Cloudy
Partly Cloudy
82.2 °F
Feels Like 92 °F
N
3.2
Wind Variable Wind from SSW
Gusts 3.7 mph

Today
High -- | Low -- °F
--% Chance of Precip.
Yesterday
High -- | Low -- °F
Precip. -- in
6:30 AM 8:17 PM
Waxing Gibbous, 97% visible
Pressure 30.16 in
Visibility 10.0 miles
Clouds Clear
Heat Index 92 °F
Dew Point 79 °F
Humidity 89%
Rainfall in
Snow Depth Not available.
UV 4 out of 12
Pollen 3.50 out of 12
Air Quality Not available.
Flu Activity Sporadic
METAR KPMP 301253Z 31005KT 10SM CLR 28/24 A3015 RMK AO2 SLP211 T02830239

More Conditions Fewer Conditions

Pressure 30.16 in
Visibility 10.0 miles
Clouds Clear
Heat Index 92 °F
Dew Point 79 °F
Humidity 89%
Rainfall in
Snow Depth Not available.
UV 4 out of 12
Pollen 3.50 out of 12
Air Quality Not available.
Flu Activity Sporadic
METAR KPMP 301253Z 31005KT 10SM CLR 28/24 A3015 RMK AO2 SLP211 T02830239

More Conditions Fewer Conditions

10-Day Weather Forecast

×

Almanac

Astronomy

Jun. 30, 2015 Rise Set
Actual Time
Civil Twilight
Nautical Twilight
Astronomical Twilight
Moon
Length of Visible Light
Length of Day
Tomorrow will be .
, % of the Moon is Illuminated

Today's Extremes

State Highs State Lows

Community

WunderPhotos

Upload Photos

1,833,994 photos uploaded!

WunderBlogs® & News

Nearby

Air Quality

  Air Quality AQ Index Pollutant
Not available.

Snow Depth

Station Depth Elevation

Earthquake Activity

City Distance Mag. Time & Date
Minimum magnitude displayed is 2.5.

Coastal Water Temperatures

Place Temperature

Stations

Nearby Weather Stations

Station Location Temp. Windchill Dew Point Humidity Wind Precip. Elev Updated Type